createdAt,value
2022-12-17T00:01:10.169Z,42.65
2022-12-17T00:03:56.945Z,47.97
2022-12-17T00:06:42.591Z,45.00
2022-12-17T00:09:28.081Z,51.10
2022-12-17T00:12:13.459Z,52.60
2022-12-17T00:14:58.959Z,44.35
2022-12-17T00:17:44.595Z,52.97
2022-12-17T00:20:30.061Z,56.13
2022-12-17T00:23:20.662Z,47.25
2022-12-17T00:26:11.199Z,46.92
2022-12-17T00:28:57.078Z,47.85
2022-12-17T00:31:46.519Z,47.15
2022-12-17T00:34:32.272Z,63.65
2022-12-17T00:37:18.455Z,69.82
2022-12-17T00:40:03.634Z,85.40
2022-12-17T00:42:49.287Z,117.20
2022-12-17T00:45:34.420Z,86.20
2022-12-17T00:48:19.994Z,114.60
2022-12-17T00:51:05.455Z,153.45
2022-12-17T00:53:50.985Z,129.05
2022-12-17T00:56:36.226Z,90.60
2022-12-17T00:59:21.646Z,126.05
2022-12-17T01:02:06.963Z,156.75
2022-12-17T01:04:52.730Z,111.78
2022-12-17T01:07:39.228Z,85.53
2022-12-17T01:10:25.139Z,157.80
2022-12-17T01:13:10.259Z,90.65
2022-12-17T01:15:56.705Z,76.35
2022-12-17T01:18:42.032Z,76.68
2022-12-17T01:21:27.793Z,84.30
2022-12-17T01:24:13.079Z,91.90
2022-12-17T01:26:58.763Z,113.85
2022-12-17T01:29:44.105Z,92.15
2022-12-17T01:32:30.795Z,57.28
2022-12-17T01:35:15.935Z,60.22
2022-12-17T01:38:01.534Z,62.80
2022-12-17T01:40:46.590Z,60.47
2022-12-17T01:43:32.782Z,57.85
2022-12-17T01:46:18.658Z,61.25
2022-12-17T01:49:06.277Z,56.42
2022-12-17T01:52:06.755Z,62.58
2022-12-17T01:55:04.230Z,60.10
2022-12-17T01:57:49.652Z,67.55
2022-12-17T02:00:36.623Z,62.55
2022-12-17T02:03:23.071Z,65.32
2022-12-17T02:06:29.901Z,63.58
2022-12-17T02:09:36.834Z,61.47
2022-12-17T02:12:48.134Z,79.32
2022-12-17T02:16:15.304Z,77.28
2022-12-17T02:19:12.035Z,60.42
2022-12-17T02:21:59.375Z,69.13
2022-12-17T02:25:03.269Z,58.55
2022-12-17T02:27:52.630Z,52.63
2022-12-17T02:30:38.601Z,54.75
2022-12-17T02:33:24.363Z,68.97
2022-12-17T02:36:16.812Z,46.35
2022-12-17T02:39:02.152Z,44.95
2022-12-17T02:42:05.211Z,49.45
2022-12-17T02:44:53.993Z,47.38
2022-12-17T02:47:41.843Z,52.70
2022-12-17T02:50:29.175Z,56.80
2022-12-17T02:53:17.690Z,53.80
2022-12-17T02:56:03.514Z,49.17
2022-12-17T02:58:51.935Z,47.50
2022-12-17T03:01:37.493Z,44.95
2022-12-17T03:04:23.902Z,54.03
2022-12-17T03:07:09.152Z,48.63
2022-12-17T03:09:54.976Z,55.17
2022-12-17T03:12:42.666Z,65.28
2022-12-17T03:15:28.273Z,49.87
2022-12-17T03:18:13.565Z,68.33
2022-12-17T03:20:58.984Z,73.13
2022-12-17T03:23:44.450Z,55.17
2022-12-17T03:26:34.397Z,67.13
2022-12-17T03:29:19.819Z,73.15
2022-12-17T03:32:05.346Z,145.97
2022-12-17T03:34:50.489Z,88.67
2022-12-17T03:37:36.165Z,116.00
2022-12-17T03:40:21.666Z,80.63
2022-12-17T03:43:06.964Z,79.57
2022-12-17T03:45:52.424Z,79.50
2022-12-17T03:48:38.179Z,80.67
2022-12-17T03:51:23.556Z,72.10
2022-12-17T03:54:09.018Z,69.80
2022-12-17T03:56:54.443Z,82.07
2022-12-17T03:59:40.068Z,65.80
2022-12-17T04:02:25.743Z,73.20
2022-12-17T04:05:16.596Z,82.50
2022-12-17T04:08:05.221Z,72.13
2022-12-17T04:10:50.892Z,82.03
2022-12-17T04:13:44.220Z,78.37
2022-12-17T04:16:29.860Z,83.57
2022-12-17T04:19:15.306Z,77.67
2022-12-17T04:22:00.783Z,83.57
2022-12-17T04:24:46.418Z,80.80
2022-12-17T04:27:31.870Z,75.37
2022-12-17T04:30:17.289Z,79.53
2022-12-17T04:33:02.908Z,81.40
2022-12-17T04:35:48.435Z,72.40
2022-12-17T04:38:33.866Z,75.23
2022-12-17T04:41:19.339Z,70.73
2022-12-17T04:44:04.767Z,74.63
2022-12-17T04:46:50.303Z,77.53
2022-12-17T04:49:35.387Z,76.60
2022-12-17T04:52:20.844Z,69.13
2022-12-17T04:55:06.303Z,69.37
2022-12-17T04:57:52.324Z,57.27
2022-12-17T05:00:37.800Z,50.07
2022-12-17T05:03:32.667Z,56.53
2022-12-17T05:06:19.742Z,61.23
2022-12-17T05:09:05.804Z,55.67
2022-12-17T05:11:51.234Z,62.87
2022-12-17T05:14:36.966Z,52.17
2022-12-17T05:17:22.381Z,48.87
2022-12-17T05:20:07.997Z,49.50
2022-12-17T05:22:53.373Z,58.60
2022-12-17T05:25:38.748Z,55.87
2022-12-17T05:28:24.258Z,61.10
2022-12-17T05:31:14.203Z,56.37
2022-12-17T05:34:00.579Z,57.27
2022-12-17T05:36:46.349Z,49.40
2022-12-17T05:39:51.589Z,50.30
2022-12-17T05:42:36.969Z,49.60
2022-12-17T05:45:22.815Z,69.67
2022-12-17T05:48:08.269Z,50.30
2022-12-17T05:50:53.571Z,61.03
2022-12-17T05:53:39.528Z,69.33
2022-12-17T05:56:25.168Z,55.40
2022-12-17T05:59:10.997Z,57.93
2022-12-17T06:01:56.455Z,76.30
2022-12-17T06:04:42.279Z,71.87
2022-12-17T06:07:27.813Z,70.83
2022-12-17T06:10:13.257Z,81.27
2022-12-17T06:12:58.686Z,68.70
2022-12-17T06:15:44.194Z,70.83
2022-12-17T06:18:29.428Z,80.82
2022-12-17T06:21:31.767Z,65.97
2022-12-17T06:24:17.511Z,84.03
2022-12-17T06:27:03.205Z,71.20
2022-12-17T06:29:48.592Z,79.03
2022-12-17T06:32:34.047Z,63.63
2022-12-17T06:35:19.578Z,66.05
2022-12-17T06:38:05.106Z,59.30
2022-12-17T06:40:50.517Z,73.53
2022-12-17T06:43:36.207Z,61.23
2022-12-17T06:46:22.088Z,57.07
2022-12-17T06:49:07.810Z,61.70
2022-12-17T06:51:53.138Z,59.42
2022-12-17T06:54:38.711Z,66.75
2022-12-17T06:57:24.046Z,59.13
2022-12-17T07:00:09.458Z,63.30
2022-12-17T07:02:55.809Z,57.90
2022-12-17T07:05:41.533Z,54.92
2022-12-17T07:08:27.194Z,59.67
2022-12-17T07:11:12.624Z,55.85
2022-12-17T07:13:58.135Z,53.70
2022-12-17T07:16:43.580Z,44.58
2022-12-17T07:19:28.713Z,43.83
2022-12-17T07:22:16.217Z,43.35
2022-12-17T07:25:01.379Z,49.22
2022-12-17T07:27:46.983Z,48.80
2022-12-17T07:30:32.307Z,46.70
2022-12-17T07:33:19.860Z,57.83
2022-12-17T07:36:05.018Z,51.47
2022-12-17T07:38:51.445Z,45.08
2022-12-17T07:41:47.465Z,48.70
2022-12-17T07:44:32.887Z,43.40
2022-12-17T07:47:18.048Z,45.35
2022-12-17T07:50:03.527Z,48.08
2022-12-17T07:52:48.987Z,54.25
2022-12-17T07:55:34.463Z,58.63
2022-12-17T07:58:24.812Z,65.65
2022-12-17T08:01:10.286Z,55.88
2022-12-17T08:03:56.149Z,55.55
2022-12-17T08:06:41.583Z,56.50
2022-12-17T08:09:27.046Z,51.78
2022-12-17T08:12:12.556Z,49.67
2022-12-17T08:15:14.643Z,58.92
2022-12-17T08:18:00.058Z,49.15
2022-12-17T08:20:45.527Z,51.20
2022-12-17T08:23:31.067Z,48.85
2022-12-17T08:26:16.632Z,51.20
2022-12-17T08:29:02.151Z,51.15
2022-12-17T08:31:48.012Z,54.30
2022-12-17T08:34:47.248Z,54.53
2022-12-17T08:37:32.934Z,53.60
2022-12-17T08:40:18.335Z,47.65
2022-12-17T08:43:03.847Z,48.03
2022-12-17T08:45:49.367Z,47.25
2022-12-17T08:48:35.080Z,50.70
2022-12-17T08:51:20.563Z,54.35
2022-12-17T08:54:05.884Z,49.88
2022-12-17T08:56:51.446Z,49.83
2022-12-17T08:59:37.987Z,60.00
2022-12-17T09:02:23.497Z,52.10
2022-12-17T09:05:09.450Z,55.70
2022-12-17T09:08:06.312Z,54.63
2022-12-17T09:10:51.950Z,57.30
2022-12-17T09:13:37.602Z,50.20
2022-12-17T09:16:23.463Z,58.20
2022-12-17T09:19:09.480Z,49.30
2022-12-17T09:21:56.351Z,53.70
2022-12-17T09:24:41.739Z,52.60
2022-12-17T09:27:27.198Z,49.47
2022-12-17T09:30:12.503Z,44.70
2022-12-17T09:32:58.084Z,44.17
2022-12-17T09:35:43.539Z,42.40
2022-12-17T09:38:33.396Z,50.20
2022-12-17T09:41:45.090Z,50.83
2022-12-17T09:44:41.950Z,41.73
2022-12-17T09:47:41.948Z,41.30
2022-12-17T09:50:33.598Z,41.93
2022-12-17T09:53:22.559Z,45.53
2022-12-17T09:56:11.923Z,46.03
2022-12-17T09:58:59.066Z,44.77
2022-12-17T10:01:51.953Z,49.03
2022-12-17T10:04:48.920Z,43.00
2022-12-17T10:07:39.724Z,42.37
2022-12-17T10:10:44.863Z,51.10
2022-12-17T10:13:38.846Z,52.00
2022-12-17T10:16:46.492Z,56.80
2022-12-17T10:19:48.990Z,73.90
2022-12-17T10:22:39.420Z,67.20
2022-12-17T10:25:40.116Z,85.53
2022-12-17T10:28:37.472Z,62.63
2022-12-17T10:31:39.782Z,50.47
2022-12-17T10:34:30.626Z,56.33
2022-12-17T10:37:16.308Z,55.80
2022-12-17T10:40:01.837Z,52.00
2022-12-17T10:42:50.352Z,50.47
2022-12-17T10:45:54.433Z,44.60
2022-12-17T10:48:50.608Z,41.23
2022-12-17T10:51:53.054Z,43.40
2022-12-17T10:54:49.701Z,31.90
2022-12-17T10:57:43.034Z,34.00
2022-12-17T11:00:50.214Z,33.13
2022-12-17T11:03:52.871Z,39.40
2022-12-17T11:06:48.540Z,40.20
2022-12-17T11:09:49.023Z,42.77
2022-12-17T11:12:36.365Z,39.40
2022-12-17T11:16:01.387Z,36.57
2022-12-17T11:18:58.596Z,37.07
2022-12-17T11:21:50.195Z,35.83
2022-12-17T11:25:03.720Z,42.73
2022-12-17T11:27:55.536Z,40.67
2022-12-17T11:30:41.188Z,45.17
2022-12-17T11:34:07.941Z,36.80
2022-12-17T11:37:07.021Z,39.83
2022-12-17T11:40:17.735Z,41.03
2022-12-17T11:43:17.637Z,39.93
2022-12-17T11:46:47.379Z,40.10
2022-12-17T11:49:58.978Z,37.50
2022-12-17T11:53:09.599Z,35.33
2022-12-17T11:56:15.529Z,36.43
2022-12-17T11:59:35.014Z,37.60
2022-12-17T12:02:43.347Z,33.77
2022-12-17T12:06:12.694Z,33.83
2022-12-17T12:09:53.046Z,32.83
2022-12-17T12:13:02.379Z,32.33
2022-12-17T12:16:26.852Z,34.40
2022-12-17T12:19:33.727Z,37.83
2022-12-17T12:22:33.104Z,30.60
2022-12-17T12:25:53.109Z,33.43
2022-12-17T12:29:02.890Z,30.80
2022-12-17T12:31:54.324Z,40.77
2022-12-17T12:34:53.119Z,32.90
2022-12-17T12:37:40.036Z,32.40
2022-12-17T12:40:46.649Z,34.60
2022-12-17T12:43:49.028Z,32.27
2022-12-17T12:46:38.884Z,39.67
2022-12-17T12:49:45.866Z,32.17
2022-12-17T12:52:39.829Z,32.17
2022-12-17T12:55:25.590Z,29.30
2022-12-17T12:58:24.169Z,38.60
2022-12-17T13:01:12.183Z,33.70
2022-12-17T13:04:03.671Z,36.10
2022-12-17T13:06:54.346Z,33.37
2022-12-17T13:09:33.949Z,38.17
2022-12-17T13:12:04.392Z,34.80
2022-12-17T13:14:44.490Z,39.90
2022-12-17T13:17:17.427Z,39.03
2022-12-17T13:19:57.268Z,35.60
2022-12-17T13:22:24.802Z,40.67
2022-12-17T13:25:20.596Z,34.83
2022-12-17T13:27:48.820Z,36.33
2022-12-17T13:30:18.590Z,32.27
2022-12-17T13:33:25.539Z,39.50
2022-12-17T13:36:31.206Z,33.07
2022-12-17T13:39:56.173Z,35.77
2022-12-17T13:42:32.113Z,30.87
2022-12-17T13:44:59.844Z,38.83
2022-12-17T13:47:33.196Z,37.43
2022-12-17T13:50:32.907Z,33.63
2022-12-17T13:52:51.979Z,35.93
2022-12-17T13:55:26.641Z,45.23
2022-12-17T13:57:54.482Z,38.50
2022-12-17T14:00:30.927Z,37.83
2022-12-17T14:02:58.157Z,36.50
2022-12-17T14:05:33.241Z,36.93
2022-12-17T14:08:03.863Z,42.20
2022-12-17T14:10:31.336Z,39.70
2022-12-17T14:13:15.465Z,35.30
2022-12-17T14:15:52.790Z,36.80
2022-12-17T14:18:21.571Z,35.83
2022-12-17T14:20:51.408Z,38.57
2022-12-17T14:23:30.267Z,42.93
2022-12-17T14:25:57.437Z,39.43
2022-12-17T14:28:37.111Z,36.73
2022-12-17T14:34:11.170Z,45.87
2022-12-17T14:36:42.271Z,41.53
2022-12-17T14:39:24.510Z,49.23
2022-12-17T14:42:10.291Z,39.93
2022-12-17T14:44:50.364Z,40.83
2022-12-17T14:47:25.205Z,38.70
2022-12-17T14:49:56.646Z,35.93
2022-12-17T14:52:42.534Z,40.80
2022-12-17T14:55:57.877Z,39.20
2022-12-17T14:58:26.696Z,37.80
2022-12-17T15:01:09.118Z,32.37
2022-12-17T15:03:42.931Z,40.77
2022-12-17T15:06:13.982Z,39.83
2022-12-17T15:08:43.867Z,35.90
2022-12-17T15:11:14.417Z,36.53
2022-12-17T15:13:41.645Z,50.63
2022-12-17T15:16:08.879Z,41.03
2022-12-17T15:18:35.985Z,43.73
2022-12-17T15:21:03.723Z,40.60
2022-12-17T15:23:31.384Z,41.40
2022-12-17T15:25:58.277Z,34.63
2022-12-17T15:28:25.150Z,39.83
2022-12-17T15:30:52.126Z,45.23
2022-12-17T15:33:19.035Z,47.00
2022-12-17T15:35:45.925Z,55.57
2022-12-17T15:38:13.310Z,54.97
2022-12-17T15:40:40.627Z,60.57
2022-12-17T15:43:11.085Z,57.53
2022-12-17T15:45:47.913Z,53.17
2022-12-17T15:48:21.198Z,56.30
2022-12-17T15:50:49.734Z,52.13
2022-12-17T15:53:16.727Z,53.60
2022-12-17T15:55:43.602Z,51.30
2022-12-17T15:58:13.887Z,49.20
2022-12-17T16:00:40.775Z,52.43
2022-12-17T16:03:07.814Z,55.30
2022-12-17T16:05:34.796Z,53.97
2022-12-17T16:08:02.528Z,55.37
2022-12-17T16:10:30.164Z,54.43
2022-12-17T16:12:57.689Z,64.13
2022-12-17T16:15:24.690Z,69.03
2022-12-17T16:17:51.616Z,70.60
2022-12-17T16:20:19.957Z,77.13
2022-12-17T16:22:46.866Z,68.37
2022-12-17T16:25:14.174Z,64.67
2022-12-17T16:27:41.144Z,63.43
2022-12-17T16:30:11.157Z,63.40
2022-12-17T16:32:38.719Z,59.63
2022-12-17T16:35:06.510Z,67.97
2022-12-17T16:37:33.662Z,61.80
2022-12-17T16:40:00.859Z,58.03
2022-12-17T16:42:28.244Z,58.27
2022-12-17T16:44:55.151Z,53.23
2022-12-17T16:47:22.037Z,55.10
2022-12-17T16:49:50.971Z,59.80
2022-12-17T16:52:18.004Z,59.27
2022-12-17T16:54:45.017Z,60.63
2022-12-17T16:57:11.919Z,59.57
2022-12-17T16:59:38.805Z,57.23
2022-12-17T17:02:14.173Z,65.50
2022-12-17T17:04:41.208Z,56.60
2022-12-17T17:07:08.085Z,52.83
2022-12-17T17:09:34.972Z,60.70
2022-12-17T17:12:01.914Z,55.40
2022-12-17T17:14:28.831Z,61.80
2022-12-17T17:16:55.690Z,51.93
2022-12-17T17:19:22.576Z,61.07
2022-12-17T17:21:53.961Z,55.87
2022-12-17T17:24:25.401Z,66.23
2022-12-17T17:26:54.444Z,67.10
2022-12-17T17:29:22.250Z,66.17
2022-12-17T17:34:36.131Z,60.00
2022-12-17T17:37:03.006Z,64.60
2022-12-17T17:39:33.012Z,55.33
2022-12-17T17:42:00.155Z,54.80
2022-12-17T17:44:27.054Z,54.90
2022-12-17T17:46:55.308Z,49.37
2022-12-17T17:49:22.841Z,53.87
2022-12-17T17:52:08.839Z,58.80
2022-12-17T17:54:38.186Z,56.97
2022-12-17T17:57:05.076Z,55.90
2022-12-17T17:59:34.060Z,48.65
2022-12-17T18:02:02.599Z,47.78
2022-12-17T18:04:29.969Z,52.87
2022-12-17T18:09:43.751Z,47.05
2022-12-17T18:12:29.541Z,45.43
2022-12-17T18:17:46.051Z,52.45
2022-12-17T18:20:14.020Z,54.78
2022-12-17T18:22:40.938Z,62.50
2022-12-17T18:25:08.022Z,58.38
2022-12-17T18:27:34.917Z,62.60
2022-12-17T18:30:01.803Z,58.55
2022-12-17T18:32:28.747Z,52.78
2022-12-17T18:34:55.783Z,56.25
2022-12-17T18:37:22.735Z,56.92
2022-12-17T18:39:49.627Z,57.50
2022-12-17T18:42:34.923Z,52.58
2022-12-17T18:45:02.857Z,54.80
2022-12-17T18:47:29.802Z,53.33
2022-12-17T18:49:57.380Z,47.58
2022-12-17T18:52:24.478Z,55.38
2022-12-17T18:54:51.357Z,54.42
2022-12-17T18:57:18.227Z,61.42
2022-12-17T18:59:45.114Z,50.58
2022-12-17T19:02:13.755Z,51.75
2022-12-17T19:04:41.208Z,51.15
2022-12-17T19:07:08.087Z,53.85
2022-12-17T19:09:36.001Z,45.63
2022-12-17T19:12:05.937Z,47.55
2022-12-17T19:14:34.102Z,51.90
2022-12-17T19:17:01.319Z,46.00
2022-12-17T19:19:28.328Z,45.97
2022-12-17T19:21:56.020Z,40.63
2022-12-17T19:24:23.598Z,38.78
2022-12-17T19:26:52.001Z,45.08
2022-12-17T19:29:20.402Z,45.60
2022-12-17T19:31:47.991Z,41.67
2022-12-17T19:34:17.213Z,39.17
2022-12-17T19:36:45.542Z,43.63
2022-12-17T19:39:17.505Z,42.88
2022-12-17T19:41:44.960Z,46.60
2022-12-17T19:44:14.462Z,37.38
2022-12-17T19:46:43.320Z,38.08
2022-12-17T19:49:15.508Z,41.17
2022-12-17T19:51:44.255Z,51.85
2022-12-17T19:54:15.240Z,38.78
2022-12-17T19:56:44.563Z,41.38
2022-12-17T19:59:13.467Z,43.80
2022-12-17T20:01:45.022Z,42.83
2022-12-17T20:04:13.609Z,40.85
2022-12-17T20:06:42.074Z,44.28
2022-12-17T20:09:08.978Z,46.53
2022-12-17T20:11:36.775Z,41.60
2022-12-17T20:14:07.470Z,42.88
2022-12-17T20:16:48.664Z,40.53
2022-12-17T20:19:25.391Z,44.50
2022-12-17T20:21:53.526Z,42.28
2022-12-17T20:24:23.549Z,37.88
2022-12-17T20:26:54.888Z,39.17
2022-12-17T20:29:24.635Z,34.88
2022-12-17T20:31:53.004Z,39.50
2022-12-17T20:34:21.590Z,38.42
2022-12-17T20:36:48.965Z,33.72
2022-12-17T20:39:16.174Z,32.80
2022-12-17T20:41:44.394Z,37.40
2022-12-17T20:44:14.577Z,39.95
2022-12-17T20:46:42.676Z,37.15
2022-12-17T20:49:12.040Z,35.65
2022-12-17T20:51:39.438Z,34.85
2022-12-17T20:54:08.345Z,39.88
2022-12-17T20:56:36.207Z,35.45
2022-12-17T20:59:06.929Z,36.42
2022-12-17T21:01:36.319Z,42.55
2022-12-17T21:04:06.305Z,41.70
2022-12-17T21:06:39.740Z,39.70
2022-12-17T21:09:07.622Z,43.80
2022-12-17T21:11:36.980Z,34.00
2022-12-17T21:14:07.978Z,41.30
2022-12-17T21:16:35.958Z,36.78
2022-12-17T21:19:04.948Z,43.33
2022-12-17T21:21:35.394Z,38.70
2022-12-17T21:24:02.319Z,37.60
2022-12-17T21:26:38.677Z,36.80
2022-12-17T21:29:07.537Z,43.40
2022-12-17T21:31:50.164Z,39.17
2022-12-17T21:34:23.051Z,47.65
2022-12-17T21:36:51.412Z,48.63
2022-12-17T21:39:19.241Z,44.30
2022-12-17T21:42:07.665Z,33.90
2022-12-17T21:44:35.643Z,47.63
2022-12-17T21:47:02.532Z,36.73
2022-12-17T21:49:29.591Z,37.87
2022-12-17T21:51:59.193Z,36.53
2022-12-17T21:54:26.167Z,42.93
2022-12-17T21:56:53.060Z,36.53
2022-12-17T21:59:19.932Z,41.00
2022-12-17T22:01:46.927Z,42.07
2022-12-17T22:04:14.049Z,36.60
2022-12-17T22:06:45.572Z,37.90
2022-12-17T22:09:37.773Z,37.63
2022-12-17T22:12:29.533Z,36.77
2022-12-17T22:14:56.405Z,37.37
2022-12-17T22:17:23.784Z,39.90
2022-12-17T22:19:50.733Z,36.20
2022-12-17T22:22:17.624Z,35.87
2022-12-17T22:24:44.505Z,37.30
2022-12-17T22:27:11.483Z,35.10
2022-12-17T22:29:57.241Z,31.23
2022-12-17T22:32:42.830Z,32.50
2022-12-17T22:36:11.546Z,31.50
2022-12-17T22:40:00.405Z,32.43
2022-12-17T22:44:33.477Z,37.33
2022-12-17T22:44:46.802Z,36.17
2022-12-17T22:46:18.428Z,32.13
2022-12-17T22:48:45.503Z,34.90
2022-12-17T22:51:20.851Z,31.37
2022-12-17T22:53:54.916Z,31.17
2022-12-17T22:56:44.567Z,38.90
2022-12-17T22:59:18.425Z,35.20
2022-12-17T23:01:45.891Z,29.60
2022-12-17T23:04:15.685Z,31.17
2022-12-17T23:06:48.059Z,34.57
2022-12-17T23:09:19.168Z,33.80
2022-12-17T23:11:47.963Z,31.70
2022-12-17T23:14:17.070Z,32.90
2022-12-17T23:16:44.132Z,29.80
2022-12-17T23:19:11.702Z,32.83
2022-12-17T23:21:38.869Z,34.17
2022-12-17T23:24:06.721Z,28.57
2022-12-17T23:26:36.564Z,30.87
2022-12-17T23:29:08.473Z,33.00
2022-12-17T23:31:38.652Z,37.80
2022-12-17T23:34:06.043Z,35.20
2022-12-17T23:36:33.275Z,33.27
2022-12-17T23:39:00.283Z,31.07
2022-12-17T23:41:30.249Z,33.60
2022-12-17T23:43:59.027Z,27.70
2022-12-17T23:46:28.563Z,26.80
2022-12-17T23:48:55.600Z,28.65
2022-12-17T23:51:24.158Z,31.33
2022-12-17T23:53:51.122Z,31.97
2022-12-17T23:56:23.183Z,25.40
2022-12-17T23:58:55.457Z,33.40
